sensor_id;sensor_type;location;lat;lon;timestamp;temperature;humidity
48946;DHT22;34999;50.940;3.998;2023-03-21T00:01:04;9.80;99.90
48946;DHT22;34999;50.940;3.998;2023-03-21T00:03:33;9.80;99.90
48946;DHT22;34999;50.940;3.998;2023-03-21T00:06:05;9.80;99.90
48946;DHT22;34999;50.940;3.998;2023-03-21T00:08:34;9.90;99.90
48946;DHT22;34999;50.940;3.998;2023-03-21T00:11:04;9.90;99.90
48946;DHT22;34999;50.940;3.998;2023-03-21T00:13:33;9.90;99.90
48946;DHT22;34999;50.940;3.998;2023-03-21T00:16:05;9.90;99.90
48946;DHT22;34999;50.940;3.998;2023-03-21T00:18:41;9.90;99.90
48946;DHT22;34999;50.940;3.998;2023-03-21T00:21:14;9.90;99.90
48946;DHT22;34999;50.940;3.998;2023-03-21T00:24:03;9.90;99.90
48946;DHT22;34999;50.940;3.998;2023-03-21T00:26:35;9.90;99.90
48946;DHT22;34999;50.940;3.998;2023-03-21T00:29:04;9.90;99.90
48946;DHT22;34999;50.940;3.998;2023-03-21T00:31:32;10.00;99.90
48946;DHT22;34999;50.940;3.998;2023-03-21T00:34:02;9.90;99.90
48946;DHT22;34999;50.940;3.998;2023-03-21T00:36:30;9.90;99.90
48946;DHT22;34999;50.940;3.998;2023-03-21T00:38:59;9.80;99.90
48946;DHT22;34999;50.940;3.998;2023-03-21T00:41:27;9.80;99.90
48946;DHT22;34999;50.940;3.998;2023-03-21T00:44:11;9.80;99.90
48946;DHT22;34999;50.940;3.998;2023-03-21T00:46:42;9.90;99.90
48946;DHT22;34999;50.940;3.998;2023-03-21T00:49:28;9.90;99.90
48946;DHT22;34999;50.940;3.998;2023-03-21T00:51:59;9.90;99.90
48946;DHT22;34999;50.940;3.998;2023-03-21T00:54:46;9.90;99.90
48946;DHT22;34999;50.940;3.998;2023-03-21T00:57:14;9.90;99.90
48946;DHT22;34999;50.940;3.998;2023-03-21T00:59:42;9.90;99.90
48946;DHT22;34999;50.940;3.998;2023-03-21T01:02:11;9.90;99.90
48946;DHT22;34999;50.940;3.998;2023-03-21T01:04:42;9.90;99.90
48946;DHT22;34999;50.940;3.998;2023-03-21T01:07:10;10.00;99.90
48946;DHT22;34999;50.940;3.998;2023-03-21T01:09:38;9.90;99.90
48946;DHT22;34999;50.940;3.998;2023-03-21T01:12:07;9.90;99.90
48946;DHT22;34999;50.940;3.998;2023-03-21T01:14:36;9.90;99.90
48946;DHT22;34999;50.940;3.998;2023-03-21T01:17:04;9.90;99.90
48946;DHT22;34999;50.940;3.998;2023-03-21T01:19:33;9.80;99.90
48946;DHT22;34999;50.940;3.998;2023-03-21T01:22:19;9.90;99.90
48946;DHT22;34999;50.940;3.998;2023-03-21T01:24:47;9.90;99.90
48946;DHT22;34999;50.940;3.998;2023-03-21T01:27:24;9.80;99.90
48946;DHT22;34999;50.940;3.998;2023-03-21T01:29:52;9.80;99.90
48946;DHT22;34999;50.940;3.998;2023-03-21T01:32:20;9.80;99.90
48946;DHT22;34999;50.940;3.998;2023-03-21T01:34:49;9.70;99.90
48946;DHT22;34999;50.940;3.998;2023-03-21T01:37:18;9.80;99.90
48946;DHT22;34999;50.940;3.998;2023-03-21T01:39:46;9.80;99.90
48946;DHT22;34999;50.940;3.998;2023-03-21T01:42:15;9.70;99.90
48946;DHT22;34999;50.940;3.998;2023-03-21T01:44:54;9.80;99.90
48946;DHT22;34999;50.940;3.998;2023-03-21T01:47:23;9.80;99.90
48946;DHT22;34999;50.940;3.998;2023-03-21T01:49:55;9.80;99.90
48946;DHT22;34999;50.940;3.998;2023-03-21T01:52:27;9.90;99.90
48946;DHT22;34999;50.940;3.998;2023-03-21T01:55:06;9.90;99.90
48946;DHT22;34999;50.940;3.998;2023-03-21T01:57:40;9.90;99.90
48946;DHT22;34999;50.940;3.998;2023-03-21T02:00:30;9.90;99.90
48946;DHT22;34999;50.940;3.998;2023-03-21T02:03:00;9.80;99.90
48946;DHT22;34999;50.940;3.998;2023-03-21T02:05:50;9.80;99.90
48946;DHT22;34999;50.940;3.998;2023-03-21T02:08:21;9.80;99.90
48946;DHT22;34999;50.940;3.998;2023-03-21T02:11:05;9.70;99.90
48946;DHT22;34999;50.940;3.998;2023-03-21T02:13:34;9.70;99.90
48946;DHT22;34999;50.940;3.998;2023-03-21T02:16:10;9.70;99.90
48946;DHT22;34999;50.940;3.998;2023-03-21T02:18:44;9.60;99.90
48946;DHT22;34999;50.940;3.998;2023-03-21T02:27:37;9.50;99.90
48946;DHT22;34999;50.940;3.998;2023-03-21T02:30:32;9.50;99.90
48946;DHT22;34999;50.940;3.998;2023-03-21T02:36:26;9.40;99.90
48946;DHT22;34999;50.940;3.998;2023-03-21T02:39:01;9.40;99.90
48946;DHT22;34999;50.940;3.998;2023-03-21T02:41:44;9.50;99.90
48946;DHT22;34999;50.940;3.998;2023-03-21T02:44:19;9.50;99.90
48946;DHT22;34999;50.940;3.998;2023-03-21T02:46:51;9.60;99.90
48946;DHT22;34999;50.940;3.998;2023-03-21T02:49:36;9.60;99.90
48946;DHT22;34999;50.940;3.998;2023-03-21T02:52:12;9.60;99.90
48946;DHT22;34999;50.940;3.998;2023-03-21T02:54:59;9.60;99.90
48946;DHT22;34999;50.940;3.998;2023-03-21T02:57:31;9.60;99.90
48946;DHT22;34999;50.940;3.998;2023-03-21T03:00:11;9.70;99.90
48946;DHT22;34999;50.940;3.998;2023-03-21T03:02:45;9.70;99.90
48946;DHT22;34999;50.940;3.998;2023-03-21T03:05:25;9.70;99.90
48946;DHT22;34999;50.940;3.998;2023-03-21T03:08:08;9.80;99.90
48946;DHT22;34999;50.940;3.998;2023-03-21T03:10:50;9.80;99.90
48946;DHT22;34999;50.940;3.998;2023-03-21T03:13:32;9.90;99.90
48946;DHT22;34999;50.940;3.998;2023-03-21T03:16:10;9.90;99.90
48946;DHT22;34999;50.940;3.998;2023-03-21T03:18:45;9.90;99.90
48946;DHT22;34999;50.940;3.998;2023-03-21T03:21:18;10.00;99.90
48946;DHT22;34999;50.940;3.998;2023-03-21T03:23:50;10.00;99.90
48946;DHT22;34999;50.940;3.998;2023-03-21T03:26:25;10.00;99.90
48946;DHT22;34999;50.940;3.998;2023-03-21T03:28:58;10.10;99.90
48946;DHT22;34999;50.940;3.998;2023-03-21T03:31:31;10.10;99.90
48946;DHT22;34999;50.940;3.998;2023-03-21T03:34:02;10.10;99.90
48946;DHT22;34999;50.940;3.998;2023-03-21T03:36:36;10.10;99.90
48946;DHT22;34999;50.940;3.998;2023-03-21T03:39:06;10.10;99.90
48946;DHT22;34999;50.940;3.998;2023-03-21T03:41:44;10.10;99.90
48946;DHT22;34999;50.940;3.998;2023-03-21T03:44:34;10.10;99.90
48946;DHT22;34999;50.940;3.998;2023-03-21T03:47:06;10.20;99.90
48946;DHT22;34999;50.940;3.998;2023-03-21T03:49:45;10.10;99.90
48946;DHT22;34999;50.940;3.998;2023-03-21T03:52:18;10.10;99.90
48946;DHT22;34999;50.940;3.998;2023-03-21T03:54:49;10.00;99.90
48946;DHT22;34999;50.940;3.998;2023-03-21T03:57:20;10.10;99.90
48946;DHT22;34999;50.940;3.998;2023-03-21T03:59:49;10.10;99.90
48946;DHT22;34999;50.940;3.998;2023-03-21T04:02:17;10.10;99.90
48946;DHT22;34999;50.940;3.998;2023-03-21T04:04:46;10.10;99.90
48946;DHT22;34999;50.940;3.998;2023-03-21T04:07:19;10.10;99.90
48946;DHT22;34999;50.940;3.998;2023-03-21T04:09:48;10.20;99.90
48946;DHT22;34999;50.940;3.998;2023-03-21T04:12:16;10.20;99.90
48946;DHT22;34999;50.940;3.998;2023-03-21T04:14:45;10.20;99.90
48946;DHT22;34999;50.940;3.998;2023-03-21T04:17:14;10.30;99.90
48946;DHT22;34999;50.940;3.998;2023-03-21T04:19:43;10.30;99.90
48946;DHT22;34999;50.940;3.998;2023-03-21T04:22:12;10.30;99.90
48946;DHT22;34999;50.940;3.998;2023-03-21T04:24:41;10.30;99.90
48946;DHT22;34999;50.940;3.998;2023-03-21T04:27:10;10.30;99.90
48946;DHT22;34999;50.940;3.998;2023-03-21T04:29:40;10.20;99.90
48946;DHT22;34999;50.940;3.998;2023-03-21T04:32:09;10.20;99.90
48946;DHT22;34999;50.940;3.998;2023-03-21T04:34:48;10.20;99.90
48946;DHT22;34999;50.940;3.998;2023-03-21T04:37:21;10.10;99.90
48946;DHT22;34999;50.940;3.998;2023-03-21T04:39:50;10.20;99.90
48946;DHT22;34999;50.940;3.998;2023-03-21T04:42:19;10.10;99.90
48946;DHT22;34999;50.940;3.998;2023-03-21T04:44:47;10.10;99.90
48946;DHT22;34999;50.940;3.998;2023-03-21T04:47:17;10.10;99.90
48946;DHT22;34999;50.940;3.998;2023-03-21T04:49:47;10.00;99.90
48946;DHT22;34999;50.940;3.998;2023-03-21T04:52:16;10.00;99.90
48946;DHT22;34999;50.940;3.998;2023-03-21T04:54:44;10.00;99.90
48946;DHT22;34999;50.940;3.998;2023-03-21T04:57:13;10.00;99.90
48946;DHT22;34999;50.940;3.998;2023-03-21T04:59:41;10.00;99.90
48946;DHT22;34999;50.940;3.998;2023-03-21T05:02:10;10.00;99.90
48946;DHT22;34999;50.940;3.998;2023-03-21T05:04:39;10.00;99.90
48946;DHT22;34999;50.940;3.998;2023-03-21T05:07:07;10.00;99.90
48946;DHT22;34999;50.940;3.998;2023-03-21T05:09:36;10.00;99.90
48946;DHT22;34999;50.940;3.998;2023-03-21T05:12:04;10.00;99.90
48946;DHT22;34999;50.940;3.998;2023-03-21T05:14:33;10.00;99.90
48946;DHT22;34999;50.940;3.998;2023-03-21T05:17:01;10.00;99.90
48946;DHT22;34999;50.940;3.998;2023-03-21T05:19:31;10.00;99.90
48946;DHT22;34999;50.940;3.998;2023-03-21T05:22:05;10.00;99.90
48946;DHT22;34999;50.940;3.998;2023-03-21T05:24:34;10.00;99.90
48946;DHT22;34999;50.940;3.998;2023-03-21T05:27:03;9.90;99.90
48946;DHT22;34999;50.940;3.998;2023-03-21T05:29:33;9.90;99.90
48946;DHT22;34999;50.940;3.998;2023-03-21T05:32:01;9.80;99.90
48946;DHT22;34999;50.940;3.998;2023-03-21T05:34:30;9.80;99.90
48946;DHT22;34999;50.940;3.998;2023-03-21T05:36:59;9.70;99.90
48946;DHT22;34999;50.940;3.998;2023-03-21T05:39:28;9.80;99.90
48946;DHT22;34999;50.940;3.998;2023-03-21T05:41:56;9.80;99.90
48946;DHT22;34999;50.940;3.998;2023-03-21T05:44:24;9.80;99.90
48946;DHT22;34999;50.940;3.998;2023-03-21T05:46:53;9.70;99.90
48946;DHT22;34999;50.940;3.998;2023-03-21T05:49:21;9.60;99.90
48946;DHT22;34999;50.940;3.998;2023-03-21T05:51:50;9.60;99.90
48946;DHT22;34999;50.940;3.998;2023-03-21T05:54:18;9.50;99.90
48946;DHT22;34999;50.940;3.998;2023-03-21T05:56:48;9.50;99.90
48946;DHT22;34999;50.940;3.998;2023-03-21T05:59:16;9.50;99.90
48946;DHT22;34999;50.940;3.998;2023-03-21T06:01:44;9.50;99.90
48946;DHT22;34999;50.940;3.998;2023-03-21T06:04:13;9.50;99.90
48946;DHT22;34999;50.940;3.998;2023-03-21T06:06:41;9.50;99.90
48946;DHT22;34999;50.940;3.998;2023-03-21T06:09:09;9.50;99.90
48946;DHT22;34999;50.940;3.998;2023-03-21T06:11:41;9.50;99.90
48946;DHT22;34999;50.940;3.998;2023-03-21T06:14:12;9.60;99.90
48946;DHT22;34999;50.940;3.998;2023-03-21T06:16:40;9.60;99.90
48946;DHT22;34999;50.940;3.998;2023-03-21T06:19:08;9.50;99.90
48946;DHT22;34999;50.940;3.998;2023-03-21T06:21:37;9.50;99.90
48946;DHT22;34999;50.940;3.998;2023-03-21T06:24:05;9.60;99.90
48946;DHT22;34999;50.940;3.998;2023-03-21T06:26:34;9.50;99.90
48946;DHT22;34999;50.940;3.998;2023-03-21T06:29:03;9.50;99.90
48946;DHT22;34999;50.940;3.998;2023-03-21T06:31:33;9.50;99.90
48946;DHT22;34999;50.940;3.998;2023-03-21T06:34:01;9.50;99.90
48946;DHT22;34999;50.940;3.998;2023-03-21T06:36:29;9.50;99.90
48946;DHT22;34999;50.940;3.998;2023-03-21T06:38:59;9.60;99.90
48946;DHT22;34999;50.940;3.998;2023-03-21T06:41:27;9.60;99.90
48946;DHT22;34999;50.940;3.998;2023-03-21T06:43:56;9.70;99.90
48946;DHT22;34999;50.940;3.998;2023-03-21T06:46:24;9.70;99.90
48946;DHT22;34999;50.940;3.998;2023-03-21T06:48:54;9.80;99.90
48946;DHT22;34999;50.940;3.998;2023-03-21T06:51:22;9.80;99.90
48946;DHT22;34999;50.940;3.998;2023-03-21T06:53:50;9.80;99.90
48946;DHT22;34999;50.940;3.998;2023-03-21T06:56:18;9.80;99.90
48946;DHT22;34999;50.940;3.998;2023-03-21T06:58:47;9.90;99.90
48946;DHT22;34999;50.940;3.998;2023-03-21T07:01:16;9.90;99.90
48946;DHT22;34999;50.940;3.998;2023-03-21T07:03:44;10.00;99.90
48946;DHT22;34999;50.940;3.998;2023-03-21T07:06:14;10.10;99.90
48946;DHT22;34999;50.940;3.998;2023-03-21T07:08:42;10.10;99.90
48946;DHT22;34999;50.940;3.998;2023-03-21T07:11:11;10.10;99.90
48946;DHT22;34999;50.940;3.998;2023-03-21T07:13:39;10.10;99.90
48946;DHT22;34999;50.940;3.998;2023-03-21T07:16:08;10.10;99.90
48946;DHT22;34999;50.940;3.998;2023-03-21T07:18:36;10.00;99.90
48946;DHT22;34999;50.940;3.998;2023-03-21T07:21:05;10.10;99.90
48946;DHT22;34999;50.940;3.998;2023-03-21T07:23:36;10.10;99.90
48946;DHT22;34999;50.940;3.998;2023-03-21T07:26:04;10.10;99.90
48946;DHT22;34999;50.940;3.998;2023-03-21T07:28:33;10.10;99.90
48946;DHT22;34999;50.940;3.998;2023-03-21T07:31:04;10.10;99.90
48946;DHT22;34999;50.940;3.998;2023-03-21T07:33:33;10.10;99.90
48946;DHT22;34999;50.940;3.998;2023-03-21T07:36:02;10.20;99.90
48946;DHT22;34999;50.940;3.998;2023-03-21T07:38:31;10.30;99.90
48946;DHT22;34999;50.940;3.998;2023-03-21T07:41:00;10.20;99.90
48946;DHT22;34999;50.940;3.998;2023-03-21T07:43:29;10.30;99.90
48946;DHT22;34999;50.940;3.998;2023-03-21T07:45:57;10.40;99.90
48946;DHT22;34999;50.940;3.998;2023-03-21T07:48:26;10.40;99.90
48946;DHT22;34999;50.940;3.998;2023-03-21T07:50:54;10.40;99.90
48946;DHT22;34999;50.940;3.998;2023-03-21T07:53:22;10.40;99.90
48946;DHT22;34999;50.940;3.998;2023-03-21T07:55:51;10.40;99.90
48946;DHT22;34999;50.940;3.998;2023-03-21T07:58:22;10.40;99.90
48946;DHT22;34999;50.940;3.998;2023-03-21T08:00:51;10.50;99.90
48946;DHT22;34999;50.940;3.998;2023-03-21T08:03:19;10.50;99.90
48946;DHT22;34999;50.940;3.998;2023-03-21T08:05:50;10.50;99.90
48946;DHT22;34999;50.940;3.998;2023-03-21T08:08:18;10.50;99.90
48946;DHT22;34999;50.940;3.998;2023-03-21T08:10:46;10.60;99.90
48946;DHT22;34999;50.940;3.998;2023-03-21T08:13:14;10.60;99.90
48946;DHT22;34999;50.940;3.998;2023-03-21T08:15:44;10.70;99.90
48946;DHT22;34999;50.940;3.998;2023-03-21T08:18:12;10.70;99.90
48946;DHT22;34999;50.940;3.998;2023-03-21T08:20:41;10.80;99.90
48946;DHT22;34999;50.940;3.998;2023-03-21T08:23:09;10.90;99.90
48946;DHT22;34999;50.940;3.998;2023-03-21T08:25:39;11.00;99.90
48946;DHT22;34999;50.940;3.998;2023-03-21T08:28:07;11.10;99.90
48946;DHT22;34999;50.940;3.998;2023-03-21T08:30:37;11.20;99.90
48946;DHT22;34999;50.940;3.998;2023-03-21T08:33:10;11.40;99.90
48946;DHT22;34999;50.940;3.998;2023-03-21T08:35:39;11.50;99.90
48946;DHT22;34999;50.940;3.998;2023-03-21T08:38:08;11.60;99.90
48946;DHT22;34999;50.940;3.998;2023-03-21T08:40:37;11.60;99.90
48946;DHT22;34999;50.940;3.998;2023-03-21T08:43:05;11.70;99.90
48946;DHT22;34999;50.940;3.998;2023-03-21T08:45:33;11.70;99.90
48946;DHT22;34999;50.940;3.998;2023-03-21T08:48:02;11.80;99.90
48946;DHT22;34999;50.940;3.998;2023-03-21T08:50:32;11.90;99.90
48946;DHT22;34999;50.940;3.998;2023-03-21T08:53:00;12.00;99.90
48946;DHT22;34999;50.940;3.998;2023-03-21T08:55:28;12.10;99.90
48946;DHT22;34999;50.940;3.998;2023-03-21T08:57:57;12.10;99.90
48946;DHT22;34999;50.940;3.998;2023-03-21T09:00:25;12.00;99.90
48946;DHT22;34999;50.940;3.998;2023-03-21T09:02:54;12.00;99.90
48946;DHT22;34999;50.940;3.998;2023-03-21T09:05:25;12.00;99.90
48946;DHT22;34999;50.940;3.998;2023-03-21T09:07:55;11.90;99.90
48946;DHT22;34999;50.940;3.998;2023-03-21T09:10:23;12.00;99.90
48946;DHT22;34999;50.940;3.998;2023-03-21T09:12:54;12.00;99.90
48946;DHT22;34999;50.940;3.998;2023-03-21T09:15:24;12.10;99.90
48946;DHT22;34999;50.940;3.998;2023-03-21T09:17:54;12.10;99.90
48946;DHT22;34999;50.940;3.998;2023-03-21T09:20:25;12.10;99.90
48946;DHT22;34999;50.940;3.998;2023-03-21T09:22:59;12.10;99.90
48946;DHT22;34999;50.940;3.998;2023-03-21T09:25:27;12.20;99.90
48946;DHT22;34999;50.940;3.998;2023-03-21T09:27:57;12.20;99.90
48946;DHT22;34999;50.940;3.998;2023-03-21T09:30:26;12.20;99.90
48946;DHT22;34999;50.940;3.998;2023-03-21T09:32:55;12.30;99.90
48946;DHT22;34999;50.940;3.998;2023-03-21T09:35:23;12.40;99.90
48946;DHT22;34999;50.940;3.998;2023-03-21T09:37:53;12.40;99.90
48946;DHT22;34999;50.940;3.998;2023-03-21T09:40:38;12.40;99.90
48946;DHT22;34999;50.940;3.998;2023-03-21T09:43:18;12.50;99.90
48946;DHT22;34999;50.940;3.998;2023-03-21T09:45:53;12.60;99.90
48946;DHT22;34999;50.940;3.998;2023-03-21T09:48:33;12.60;99.90
48946;DHT22;34999;50.940;3.998;2023-03-21T09:51:13;12.60;99.90
48946;DHT22;34999;50.940;3.998;2023-03-21T09:53:45;12.70;99.90
48946;DHT22;34999;50.940;3.998;2023-03-21T09:56:16;12.70;99.90
48946;DHT22;34999;50.940;3.998;2023-03-21T09:58:48;12.70;99.90
48946;DHT22;34999;50.940;3.998;2023-03-21T10:01:21;12.80;99.90
48946;DHT22;34999;50.940;3.998;2023-03-21T10:03:55;12.80;99.90
48946;DHT22;34999;50.940;3.998;2023-03-21T10:06:27;12.90;99.90
48946;DHT22;34999;50.940;3.998;2023-03-21T10:08:59;12.90;99.90
48946;DHT22;34999;50.940;3.998;2023-03-21T10:11:33;12.80;99.90
48946;DHT22;34999;50.940;3.998;2023-03-21T10:14:10;12.80;99.90
48946;DHT22;34999;50.940;3.998;2023-03-21T10:16:42;12.90;99.90
48946;DHT22;34999;50.940;3.998;2023-03-21T10:19:13;13.00;99.90
48946;DHT22;34999;50.940;3.998;2023-03-21T10:21:45;13.00;99.90
48946;DHT22;34999;50.940;3.998;2023-03-21T10:24:28;13.20;99.90
48946;DHT22;34999;50.940;3.998;2023-03-21T10:27:00;13.30;99.90
48946;DHT22;34999;50.940;3.998;2023-03-21T10:29:39;13.40;99.90
48946;DHT22;34999;50.940;3.998;2023-03-21T10:32:11;13.60;99.90
48946;DHT22;34999;50.940;3.998;2023-03-21T10:34:42;13.60;99.90
48946;DHT22;34999;50.940;3.998;2023-03-21T10:37:13;13.70;99.90
48946;DHT22;34999;50.940;3.998;2023-03-21T10:39:44;13.80;99.90
48946;DHT22;34999;50.940;3.998;2023-03-21T10:42:17;13.90;99.90
48946;DHT22;34999;50.940;3.998;2023-03-21T10:44:50;13.80;99.90
48946;DHT22;34999;50.940;3.998;2023-03-21T10:47:20;13.70;99.90
48946;DHT22;34999;50.940;3.998;2023-03-21T10:49:49;13.60;99.90
48946;DHT22;34999;50.940;3.998;2023-03-21T10:52:40;13.40;99.90
48946;DHT22;34999;50.940;3.998;2023-03-21T10:55:19;13.40;99.90
48946;DHT22;34999;50.940;3.998;2023-03-21T10:57:53;13.40;99.90
48946;DHT22;34999;50.940;3.998;2023-03-21T11:00:26;13.50;99.90
48946;DHT22;34999;50.940;3.998;2023-03-21T11:02:56;13.60;99.90
48946;DHT22;34999;50.940;3.998;2023-03-21T11:05:33;13.40;99.90
48946;DHT22;34999;50.940;3.998;2023-03-21T11:08:05;13.80;99.90
48946;DHT22;34999;50.940;3.998;2023-03-21T11:10:35;14.60;99.90
48946;DHT22;34999;50.940;3.998;2023-03-21T11:13:12;15.10;99.90
48946;DHT22;34999;50.940;3.998;2023-03-21T11:15:50;16.00;99.90
48946;DHT22;34999;50.940;3.998;2023-03-21T11:18:21;16.90;99.90
48946;DHT22;34999;50.940;3.998;2023-03-21T11:20:52;16.90;99.90
48946;DHT22;34999;50.940;3.998;2023-03-21T11:23:26;17.00;99.90
48946;DHT22;34999;50.940;3.998;2023-03-21T11:25:56;16.70;99.90
48946;DHT22;34999;50.940;3.998;2023-03-21T11:28:33;16.20;99.90
48946;DHT22;34999;50.940;3.998;2023-03-21T11:31:05;15.50;99.90
48946;DHT22;34999;50.940;3.998;2023-03-21T11:33:37;15.00;99.90
48946;DHT22;34999;50.940;3.998;2023-03-21T11:36:25;14.70;99.90
48946;DHT22;34999;50.940;3.998;2023-03-21T11:38:57;14.50;99.90
48946;DHT22;34999;50.940;3.998;2023-03-21T11:41:28;14.20;99.90
48946;DHT22;34999;50.940;3.998;2023-03-21T11:44:00;14.20;99.90
48946;DHT22;34999;50.940;3.998;2023-03-21T11:46:30;14.20;99.90
48946;DHT22;34999;50.940;3.998;2023-03-21T11:48:59;14.40;99.90
48946;DHT22;34999;50.940;3.998;2023-03-21T11:51:33;14.40;99.90
48946;DHT22;34999;50.940;3.998;2023-03-21T11:54:08;14.60;99.90
48946;DHT22;34999;50.940;3.998;2023-03-21T11:56:42;14.90;99.90
48946;DHT22;34999;50.940;3.998;2023-03-21T11:59:22;15.10;99.90
48946;DHT22;34999;50.940;3.998;2023-03-21T12:02:16;15.30;99.90
48946;DHT22;34999;50.940;3.998;2023-03-21T12:04:52;15.30;99.90
48946;DHT22;34999;50.940;3.998;2023-03-21T12:07:41;15.20;99.90
48946;DHT22;34999;50.940;3.998;2023-03-21T12:10:35;15.20;99.90
48946;DHT22;34999;50.940;3.998;2023-03-21T12:13:19;15.20;99.90
48946;DHT22;34999;50.940;3.998;2023-03-21T12:15:56;15.50;99.90
48946;DHT22;34999;50.940;3.998;2023-03-21T12:18:55;15.60;99.90
48946;DHT22;34999;50.940;3.998;2023-03-21T12:21:32;16.20;99.90
48946;DHT22;34999;50.940;3.998;2023-03-21T12:24:05;16.60;99.90
48946;DHT22;34999;50.940;3.998;2023-03-21T12:26:40;16.00;99.90
48946;DHT22;34999;50.940;3.998;2023-03-21T12:29:18;15.70;99.90
48946;DHT22;34999;50.940;3.998;2023-03-21T12:32:05;15.50;99.90
48946;DHT22;34999;50.940;3.998;2023-03-21T12:34:58;15.30;99.90
48946;DHT22;34999;50.940;3.998;2023-03-21T12:37:35;15.30;99.90
48946;DHT22;34999;50.940;3.998;2023-03-21T12:40:11;15.30;99.90
48946;DHT22;34999;50.940;3.998;2023-03-21T12:43:00;15.20;99.90
48946;DHT22;34999;50.940;3.998;2023-03-21T12:45:34;15.30;99.90
48946;DHT22;34999;50.940;3.998;2023-03-21T12:48:20;15.40;99.90
48946;DHT22;34999;50.940;3.998;2023-03-21T12:50:53;15.30;99.90
48946;DHT22;34999;50.940;3.998;2023-03-21T12:53:33;15.00;99.90
48946;DHT22;34999;50.940;3.998;2023-03-21T12:56:06;14.90;99.90
48946;DHT22;34999;50.940;3.998;2023-03-21T12:58:43;14.80;99.90
48946;DHT22;34999;50.940;3.998;2023-03-21T13:01:14;14.90;99.90
48946;DHT22;34999;50.940;3.998;2023-03-21T13:03:49;14.90;99.90
48946;DHT22;34999;50.940;3.998;2023-03-21T13:06:22;14.80;99.90
48946;DHT22;34999;50.940;3.998;2023-03-21T13:08:55;14.80;99.90
48946;DHT22;34999;50.940;3.998;2023-03-21T13:11:28;14.80;99.90
48946;DHT22;34999;50.940;3.998;2023-03-21T13:14:02;14.70;99.90
48946;DHT22;34999;50.940;3.998;2023-03-21T13:16:33;14.70;99.90
48946;DHT22;34999;50.940;3.998;2023-03-21T13:19:13;14.70;99.90
48946;DHT22;34999;50.940;3.998;2023-03-21T13:21:50;14.70;99.90
48946;DHT22;34999;50.940;3.998;2023-03-21T13:24:31;14.60;99.90
48946;DHT22;34999;50.940;3.998;2023-03-21T13:27:02;14.50;99.90
48946;DHT22;34999;50.940;3.998;2023-03-21T13:29:40;14.40;99.90
48946;DHT22;34999;50.940;3.998;2023-03-21T13:32:19;14.30;99.90
48946;DHT22;34999;50.940;3.998;2023-03-21T13:34:55;14.20;99.90
48946;DHT22;34999;50.940;3.998;2023-03-21T13:37:28;14.20;99.90
48946;DHT22;34999;50.940;3.998;2023-03-21T13:40:01;14.00;99.90
48946;DHT22;34999;50.940;3.998;2023-03-21T13:42:42;14.00;99.90
48946;DHT22;34999;50.940;3.998;2023-03-21T13:45:23;13.90;99.90
48946;DHT22;34999;50.940;3.998;2023-03-21T13:47:53;13.80;99.90
48946;DHT22;34999;50.940;3.998;2023-03-21T13:50:30;13.70;99.90
48946;DHT22;34999;50.940;3.998;2023-03-21T13:53:20;13.50;99.90
48946;DHT22;34999;50.940;3.998;2023-03-21T13:56:23;13.40;99.90
48946;DHT22;34999;50.940;3.998;2023-03-21T13:58:59;13.40;99.90
48946;DHT22;34999;50.940;3.998;2023-03-21T14:01:31;13.40;99.90
48946;DHT22;34999;50.940;3.998;2023-03-21T14:04:05;13.30;99.90
48946;DHT22;34999;50.940;3.998;2023-03-21T14:06:42;13.40;99.90
48946;DHT22;34999;50.940;3.998;2023-03-21T14:09:19;13.50;99.90
48946;DHT22;34999;50.940;3.998;2023-03-21T14:11:50;13.40;99.90
48946;DHT22;34999;50.940;3.998;2023-03-21T14:14:29;13.40;99.90
48946;DHT22;34999;50.940;3.998;2023-03-21T14:17:00;13.40;99.90
48946;DHT22;34999;50.940;3.998;2023-03-21T14:19:30;13.40;99.90
48946;DHT22;34999;50.940;3.998;2023-03-21T14:21:59;13.40;99.90
48946;DHT22;34999;50.940;3.998;2023-03-21T14:24:30;13.40;99.90
48946;DHT22;34999;50.940;3.998;2023-03-21T14:26:59;13.30;99.90
48946;DHT22;34999;50.940;3.998;2023-03-21T14:29:32;13.10;99.90
48946;DHT22;34999;50.940;3.998;2023-03-21T14:32:01;12.90;99.90
48946;DHT22;34999;50.940;3.998;2023-03-21T14:34:32;12.70;99.90
48946;DHT22;34999;50.940;3.998;2023-03-21T14:37:05;12.60;99.90
48946;DHT22;34999;50.940;3.998;2023-03-21T14:39:34;12.50;99.90
48946;DHT22;34999;50.940;3.998;2023-03-21T14:42:04;12.60;99.90
48946;DHT22;34999;50.940;3.998;2023-03-21T14:44:34;12.60;99.90
48946;DHT22;34999;50.940;3.998;2023-03-21T14:47:22;12.60;99.90
48946;DHT22;34999;50.940;3.998;2023-03-21T14:49:50;12.60;99.90
48946;DHT22;34999;50.940;3.998;2023-03-21T14:52:23;12.70;99.90
48946;DHT22;34999;50.940;3.998;2023-03-21T14:54:52;12.70;99.90
48946;DHT22;34999;50.940;3.998;2023-03-21T14:57:24;12.90;99.90
48946;DHT22;34999;50.940;3.998;2023-03-21T14:59:56;13.00;99.90
48946;DHT22;34999;50.940;3.998;2023-03-21T15:02:30;13.10;99.90
48946;DHT22;34999;50.940;3.998;2023-03-21T15:05:08;13.10;99.90
48946;DHT22;34999;50.940;3.998;2023-03-21T15:07:38;13.10;99.90
48946;DHT22;34999;50.940;3.998;2023-03-21T15:10:12;13.00;99.90
48946;DHT22;34999;50.940;3.998;2023-03-21T15:12:50;13.00;99.90
48946;DHT22;34999;50.940;3.998;2023-03-21T15:15:19;13.00;99.90
48946;DHT22;34999;50.940;3.998;2023-03-21T15:17:52;12.90;99.90
48946;DHT22;34999;50.940;3.998;2023-03-21T15:20:25;13.00;99.90
48946;DHT22;34999;50.940;3.998;2023-03-21T15:23:00;13.10;99.90
48946;DHT22;34999;50.940;3.998;2023-03-21T15:25:33;13.10;99.90
48946;DHT22;34999;50.940;3.998;2023-03-21T15:28:04;13.10;99.90
48946;DHT22;34999;50.940;3.998;2023-03-21T15:30:33;13.20;99.90
48946;DHT22;34999;50.940;3.998;2023-03-21T15:33:07;13.20;99.90
48946;DHT22;34999;50.940;3.998;2023-03-21T15:35:38;13.20;99.90
48946;DHT22;34999;50.940;3.998;2023-03-21T15:38:22;13.20;99.90
48946;DHT22;34999;50.940;3.998;2023-03-21T15:40:50;13.20;99.90
48946;DHT22;34999;50.940;3.998;2023-03-21T15:43:19;13.30;99.90
48946;DHT22;34999;50.940;3.998;2023-03-21T15:45:48;13.40;99.90
48946;DHT22;34999;50.940;3.998;2023-03-21T15:48:21;13.40;99.90
48946;DHT22;34999;50.940;3.998;2023-03-21T15:50:57;13.40;99.90
48946;DHT22;34999;50.940;3.998;2023-03-21T15:53:31;13.50;99.90
48946;DHT22;34999;50.940;3.998;2023-03-21T15:56:01;13.50;99.90
48946;DHT22;34999;50.940;3.998;2023-03-21T15:58:34;13.60;99.90
48946;DHT22;34999;50.940;3.998;2023-03-21T16:01:05;13.60;99.90
48946;DHT22;34999;50.940;3.998;2023-03-21T16:03:36;13.80;99.90
48946;DHT22;34999;50.940;3.998;2023-03-21T16:06:15;13.90;99.90
48946;DHT22;34999;50.940;3.998;2023-03-21T16:08:47;13.90;99.90
48946;DHT22;34999;50.940;3.998;2023-03-21T16:11:18;13.90;99.90
48946;DHT22;34999;50.940;3.998;2023-03-21T16:13:48;13.70;99.90
48946;DHT22;34999;50.940;3.998;2023-03-21T16:16:19;13.60;99.90
48946;DHT22;34999;50.940;3.998;2023-03-21T16:18:48;13.60;99.90